Time;durP1;ratioP1;P1;durP2;ratioP2;P2;SDS_P1;SDS_P2;PMS_P1;PMS_P2;Temp;Humidity;BMP_temperature;BMP_pressure;BME280_temperature;BME280_humidity;BME280_pressure;Samples;Min_cycle;Max_cycle;Signal;HPM_P1;HPM_P2
2022/10/14 00:02:08;;;;;;;8.80;3.80;;;;;11.38;97922.20;;;;109023;1265;41607;-62
2022/10/14 00:04:38;;;;;;;9.70;4.10;;;;;11.40;97924.00;;;;108980;1269;41255;-61
2022/10/14 00:07:08;;;;;;;8.90;4.20;;;;;11.40;97920.20;;;;108663;1269;41661;-61
2022/10/14 00:09:40;;;;;;;9.10;3.90;;;;;11.40;97922.00;;;;108893;1269;41600;-61
2022/10/14 00:12:11;;;;;;;7.60;3.60;;;;;11.40;97915.20;;;;109027;1262;41430;-62
2022/10/14 00:14:41;;;;;;;8.40;4.00;;;;;11.40;97912.60;;;;109024;1269;41265;-62
2022/10/14 00:17:11;;;;;;;8.50;3.70;;;;;11.40;97908.40;;;;109105;1257;41142;-62
2022/10/14 00:19:42;;;;;;;8.20;3.90;;;;;11.38;97903.40;;;;109093;1265;41155;-62
2022/10/14 00:22:14;;;;;;;8.20;3.60;;;;;11.40;97907.40;;;;108961;1269;41127;-62
2022/10/14 00:24:43;;;;;;;8.10;3.80;;;;;11.40;97902.60;;;;109007;1269;42227;-62
2022/10/14 00:27:14;;;;;;;7.70;3.60;;;;;11.40;97897.00;;;;108982;1257;41620;-62
2022/10/14 00:29:46;;;;;;;10.00;4.00;;;;;11.40;97898.60;;;;108925;1269;41406;-61
2022/10/14 00:32:16;;;;;;;9.50;4.90;;;;;11.38;97898.60;;;;108781;1262;41135;-62
2022/10/14 00:34:47;;;;;;;10.00;4.90;;;;;11.30;97897.00;;;;108894;1271;41133;-62
2022/10/14 00:37:16;;;;;;;8.90;4.80;;;;;11.30;97891.60;;;;109009;1269;41912;-62
2022/10/14 00:39:47;;;;;;;14.60;5.20;;;;;11.30;97890.00;;;;109024;1269;41635;-62
2022/10/14 00:42:26;;;;;;;11.20;5.20;;;;;11.28;97892.40;;;;109072;1267;41609;-62
2022/10/14 00:45:11;;;;;;;10.20;5.00;;;;;11.20;97893.80;;;;108874;1260;41285;-61
2022/10/14 00:47:42;;;;;;;9.50;4.80;;;;;11.20;97887.80;;;;108954;1267;41150;-61
2022/10/14 00:50:13;;;;;;;10.00;4.70;;;;;11.20;97883.60;;;;108915;1269;41928;-61
2022/10/14 00:52:44;;;;;;;9.80;4.50;;;;;11.20;97884.80;;;;108782;1269;41954;-62
2022/10/14 00:55:16;;;;;;;9.50;4.60;;;;;11.20;97879.20;;;;108665;1271;41145;-62
2022/10/14 00:57:46;;;;;;;9.00;4.10;;;;;11.20;97880.80;;;;108628;1269;41156;-62
2022/10/14 01:00:18;;;;;;;9.40;4.40;;;;;11.20;97878.20;;;;108977;1269;41659;-63
2022/10/14 01:02:48;;;;;;;10.50;5.40;;;;;11.20;97882.00;;;;108978;1269;42414;-63
2022/10/14 01:05:20;;;;;;;9.60;4.90;;;;;11.20;97878.40;;;;108901;1257;42177;-62
2022/10/14 01:08:19;;;;;;;10.10;4.60;;;;;11.14;97875.80;;;;108729;1271;41243;-62
2022/10/14 01:11:12;;;;;;;10.50;5.40;;;;;11.14;97881.00;;;;108740;1267;42386;-62
2022/10/14 01:14:11;;;;;;;9.40;4.60;;;;;11.10;97875.60;;;;108968;1269;41137;-62
2022/10/14 01:17:04;;;;;;;9.40;4.30;;;;;11.10;97870.80;;;;108639;1270;41713;-62
2022/10/14 01:20:16;;;;;;;13.40;5.10;;;;;11.12;97867.40;;;;108866;1268;41167;-63
2022/10/14 01:23:05;;;;;;;8.70;4.10;;;;;11.10;97868.20;;;;108866;1269;41600;-63
2022/10/14 01:26:01;;;;;;;8.70;4.30;;;;;11.16;97862.60;;;;109007;1269;41377;-63
2022/10/14 01:28:40;;;;;;;9.90;3.60;;;;;11.18;97867.60;;;;109021;1269;41628;-63
2022/10/14 01:31:21;;;;;;;10.60;5.00;;;;;11.20;97868.00;;;;109029;1266;41196;-63
2022/10/14 01:33:54;;;;;;;11.70;5.70;;;;;11.20;97871.00;;;;108822;1270;41529;-62
2022/10/14 01:36:26;;;;;;;13.50;6.60;;;;;11.12;97871.00;;;;108765;1269;41229;-63
2022/10/14 01:39:23;;;;;;;9.70;4.80;;;;;11.10;97872.00;;;;108837;1269;41278;-63
2022/10/14 01:42:10;;;;;;;10.80;4.60;;;;;11.10;97870.20;;;;108830;1269;41475;-63
2022/10/14 01:44:44;;;;;;;9.20;4.20;;;;;11.10;97869.20;;;;108876;1269;41709;-63
2022/10/14 01:47:16;;;;;;;8.60;4.20;;;;;11.10;97866.20;;;;108783;1269;41193;-63
2022/10/14 01:50:03;;;;;;;7.80;3.30;;;;;11.20;97866.20;;;;108709;1269;41240;-62
2022/10/14 01:52:41;;;;;;;7.80;3.80;;;;;11.20;97861.60;;;;109045;1257;41164;-62
2022/10/14 01:55:16;;;;;;;9.10;4.30;;;;;11.20;97863.80;;;;108874;1271;41144;-62
2022/10/14 01:57:48;;;;;;;8.30;3.70;;;;;11.20;97863.20;;;;109045;1269;41627;-62
2022/10/14 02:00:18;;;;;;;8.60;4.10;;;;;11.20;97858.00;;;;108871;1271;41149;-62
2022/10/14 02:02:48;;;;;;;9.40;5.20;;;;;11.20;97858.80;;;;109044;1269;41614;-61
2022/10/14 02:05:36;;;;;;;9.10;4.80;;;;;11.20;97853.60;;;;108959;1269;42398;-62
2022/10/14 02:08:55;;;;;;;8.80;4.00;;;;;11.20;97852.80;;;;108925;1269;41595;-62
2022/10/14 02:11:24;;;;;;;9.20;3.90;;;;;11.20;97856.00;;;;108913;1269;41704;-65
2022/10/14 02:14:22;;;;;;;9.10;4.30;;;;;11.20;97853.40;;;;108811;1271;41149;-63
2022/10/14 02:17:16;;;;;;;9.50;4.00;;;;;11.20;97853.40;;;;108906;1270;41672;-64
2022/10/14 02:19:58;;;;;;;8.00;3.70;;;;;11.20;97854.60;;;;108723;1270;41162;-63
2022/10/14 02:22:37;;;;;;;9.20;3.60;;;;;11.20;97850.20;;;;109075;1267;41145;-63
2022/10/14 02:25:36;;;;;;;10.20;5.00;;;;;11.20;97857.80;;;;108973;1269;41684;-63
2022/10/14 02:28:07;;;;;;;10.10;5.10;;;;;11.18;97854.80;;;;108711;1267;41624;-63
2022/10/14 02:30:42;;;;;;;11.10;5.30;;;;;11.10;97858.40;;;;108720;1269;41866;-62
2022/10/14 02:33:13;;;;;;;10.00;4.50;;;;;11.10;97860.20;;;;108937;1269;41238;-63
2022/10/14 02:35:43;;;;;;;11.10;4.80;;;;;11.10;97862.20;;;;108948;1269;41173;-62
2022/10/14 02:38:13;;;;;;;13.20;5.30;;;;;11.10;97860.00;;;;108628;1271;41167;-63
2022/10/14 02:40:46;;;;;;;9.80;4.90;;;;;11.00;97862.00;;;;108948;1269;41357;-61
2022/10/14 02:43:17;;;;;;;11.20;4.80;;;;;11.00;97863.20;;;;108954;1269;41138;-62
2022/10/14 02:45:47;;;;;;;;;;;;;11.00;97858.40;;;;108709;1269;41156;-63
2022/10/14 02:48:17;;;;;;;13.40;4.50;;;;;11.00;97859.40;;;;108682;1271;41685;-63
2022/10/14 02:50:48;;;;;;;10.30;4.70;;;;;10.98;97856.40;;;;108984;1269;41185;-62
2022/10/14 02:53:19;;;;;;;11.10;4.70;;;;;10.98;97854.60;;;;108996;1266;41288;-62
2022/10/14 02:55:49;;;;;;;;;;;;;10.96;97856.80;;;;108928;1269;42208;-62
2022/10/14 02:58:19;;;;;;;12.50;4.50;;;;;10.90;97854.40;;;;108948;1269;41169;-62
2022/10/14 03:00:49;;;;;;;14.60;3.90;;;;;10.90;97856.80;;;;108963;1266;41597;-62
2022/10/14 03:03:20;;;;;;;20.70;4.50;;;;;10.90;97856.60;;;;108682;1271;41235;-62
2022/10/14 03:05:50;;;;;;;9.40;4.20;;;;;10.82;97857.20;;;;108946;1266;41624;-62
2022/10/14 03:08:21;;;;;;;8.60;3.70;;;;;10.80;97854.40;;;;108679;1271;41180;-62
2022/10/14 03:10:53;;;;;;;7.50;3.40;;;;;10.80;97853.20;;;;108736;1269;41235;-62
2022/10/14 03:13:23;;;;;;;7.70;3.50;;;;;10.80;97856.40;;;;108661;1269;41713;-63
2022/10/14 03:15:53;;;;;;;8.30;3.80;;;;;10.80;97856.20;;;;108691;1271;42878;-63
2022/10/14 03:18:26;;;;;;;9.00;4.30;;;;;10.80;97853.80;;;;108915;1269;41229;-62
2022/10/14 03:21:01;;;;;;;8.60;4.30;;;;;10.80;97850.00;;;;108824;1260;41161;-63
2022/10/14 03:23:36;;;;;;;7.50;3.50;;;;;10.80;97850.60;;;;108962;1269;41156;-63
2022/10/14 03:26:05;;;;;;;8.00;3.60;;;;;10.76;97846.40;;;;108690;1271;41172;-63
2022/10/14 03:28:42;;;;;;;9.70;4.00;;;;;10.76;97848.40;;;;108667;1256;42463;-62
2022/10/14 03:31:19;;;;;;;7.90;3.70;;;;;10.70;97848.20;;;;108934;1268;41938;-63
2022/10/14 03:33:57;;;;;;;10.50;4.10;;;;;10.70;97848.00;;;;108651;1271;41510;-63
2022/10/14 03:36:28;;;;;;;10.70;4.40;;;;;10.70;97850.80;;;;108668;1269;41158;-63
2022/10/14 03:38:58;;;;;;;10.50;4.40;;;;;10.70;97845.80;;;;108913;1269;41281;-64
2022/10/14 03:41:50;;;;;;;10.90;4.20;;;;;10.70;97843.80;;;;108976;1269;41585;-65
2022/10/14 03:44:22;;;;;;;9.40;3.80;;;;;10.70;97837.60;;;;108963;1261;41634;-63
2022/10/14 03:47:12;;;;;;;7.60;3.40;;;;;10.70;97843.00;;;;108997;1268;41401;-63
2022/10/14 03:49:42;;;;;;;7.90;3.50;;;;;10.62;97844.40;;;;109038;1269;41976;-63
2022/10/14 03:52:18;;;;;;;11.40;3.50;;;;;10.66;97841.40;;;;109365;1267;41825;-61
2022/10/14 03:54:58;;;;;;;12.50;3.60;;;;;10.62;97842.40;;;;109117;1266;41222;-62
2022/10/14 03:57:27;;;;;;;10.70;3.30;;;;;10.66;97841.00;;;;108892;1269;41125;-62
2022/10/14 03:59:58;;;;;;;8.30;3.20;;;;;10.70;97839.60;;;;108938;1271;41134;-61
2022/10/14 04:02:41;;;;;;;12.20;3.90;;;;;10.60;97835.80;;;;109128;1262;41156;-61
2022/10/14 04:05:33;;;;;;;13.00;4.40;;;;;10.60;97828.20;;;;108911;1269;41937;-62
2022/10/14 04:08:08;;;;;;;10.60;4.80;;;;;10.60;97832.20;;;;109084;1265;41161;-61
2022/10/14 04:10:38;;;;;;;13.60;3.60;;;;;10.60;97834.00;;;;108963;1260;41150;-62
2022/10/14 04:13:10;;;;;;;9.80;3.70;;;;;10.50;97830.00;;;;109003;1263;41343;-62
2022/10/14 04:15:40;;;;;;;10.90;3.60;;;;;10.50;97834.20;;;;108926;1269;41609;-62
2022/10/14 04:18:18;;;;;;;10.90;3.80;;;;;10.50;97836.40;;;;109003;1269;41619;-62
2022/10/14 04:20:48;;;;;;;10.20;3.90;;;;;10.50;97832.20;;;;109029;1269;41160;-62
2022/10/14 04:23:18;;;;;;;9.20;3.40;;;;;10.40;97836.80;;;;109069;1266;41130;-61
2022/10/14 04:25:49;;;;;;;9.80;3.40;;;;;10.40;97833.00;;;;109019;1271;41669;-62
2022/10/14 04:28:19;;;;;;;12.50;3.60;;;;;10.40;97836.00;;;;109069;1269;41162;-62
2022/10/14 04:31:01;;;;;;;6.60;3.00;;;;;10.40;97837.80;;;;108823;1270;41146;-62
2022/10/14 04:33:35;;;;;;;7.30;2.90;;;;;10.40;97839.40;;;;108934;1269;42004;-62
2022/10/14 04:36:10;;;;;;;7.10;3.00;;;;;10.40;97836.20;;;;109038;1260;41158;-62
2022/10/14 04:38:40;;;;;;;6.60;3.20;;;;;10.40;97841.40;;;;109204;1256;41690;-62
2022/10/14 04:41:10;;;;;;;7.10;3.10;;;;;10.36;97835.60;;;;108901;1265;41646;-62
2022/10/14 04:43:42;;;;;;;8.50;2.90;;;;;10.38;97838.40;;;;108910;1269;41489;-61
2022/10/14 04:46:25;;;;;;;6.80;3.30;;;;;10.30;97837.00;;;;108926;1257;41167;-61
2022/10/14 04:48:55;;;;;;;8.60;3.40;;;;;10.30;97837.80;;;;108719;1269;41622;-62
2022/10/14 04:51:25;;;;;;;7.30;3.20;;;;;10.30;97835.40;;;;108882;1262;41406;-61
2022/10/14 04:54:14;;;;;;;8.20;3.20;;;;;10.32;97831.00;;;;108804;1255;41450;-61
2022/10/14 04:57:01;;;;;;;9.00;3.10;;;;;10.40;97831.60;;;;108992;1266;42102;-61
2022/10/14 04:59:30;;;;;;;7.50;3.20;;;;;10.40;97831.20;;;;108644;1269;41258;-61
2022/10/14 05:02:09;;;;;;;8.70;3.30;;;;;10.40;97832.80;;;;108779;1257;41153;-61
2022/10/14 05:04:49;;;;;;;7.30;3.10;;;;;10.40;97834.20;;;;108925;1269;41239;-62
2022/10/14 05:07:19;;;;;;;11.70;3.40;;;;;10.46;97833.20;;;;108685;1271;42535;-62
2022/10/14 05:09:53;;;;;;;8.80;3.30;;;;;10.50;97831.40;;;;109031;1267;41159;-62
2022/10/14 05:12:31;;;;;;;7.40;3.30;;;;;10.50;97830.00;;;;108666;1270;41173;-61
2022/10/14 05:15:02;;;;;;;6.70;3.30;;;;;10.50;97825.80;;;;108693;1271;41134;-62
2022/10/14 05:17:36;;;;;;;7.70;3.40;;;;;10.50;97823.80;;;;108952;1269;41251;-62
2022/10/14 05:20:06;;;;;;;7.10;3.40;;;;;10.60;97825.60;;;;108685;1269;41144;-62
2022/10/14 05:22:35;;;;;;;6.60;3.10;;;;;10.60;97826.60;;;;108790;1271;41142;-62
2022/10/14 05:25:06;;;;;;;9.70;4.60;;;;;10.60;97826.80;;;;108946;1269;41148;-62
2022/10/14 05:27:38;;;;;;;18.70;5.60;;;;;10.60;97832.20;;;;108628;1256;41314;-62
2022/10/14 05:30:08;;;;;;;10.00;5.10;;;;;10.60;97825.00;;;;108611;1269;42453;-62
2022/10/14 05:32:40;;;;;;;12.40;6.60;;;;;10.60;97821.80;;;;108715;1269;41626;-62
2022/10/14 05:35:09;;;;;;;10.60;5.50;;;;;10.60;97826.80;;;;108562;1269;364877;-62
2022/10/14 05:37:40;;;;;;;9.50;4.60;;;;;10.66;97825.00;;;;108981;1260;41658;-62
2022/10/14 05:40:10;;;;;;;12.70;6.10;;;;;10.70;97832.00;;;;108683;1270;41141;-62
2022/10/14 05:42:38;;;;;;;16.20;8.70;;;;;10.70;97827.80;;;;109093;1257;41143;-62
2022/10/14 05:45:07;;;;;;;18.10;10.70;;;;;10.80;97826.80;;;;108947;1258;41149;-61
2022/10/14 05:47:43;;;;;;;17.50;9.90;;;;;10.80;97830.00;;;;108895;1266;42511;-62
2022/10/14 05:50:15;;;;;;;18.80;10.40;;;;;10.80;97832.40;;;;109039;1266;41143;-63
2022/10/14 05:52:45;;;;;;;19.40;10.50;;;;;10.80;97834.40;;;;108866;1259;41188;-62
2022/10/14 05:55:18;;;;;;;21.00;13.50;;;;;10.90;97834.60;;;;108926;1269;41700;-61
2022/10/14 05:57:48;;;;;;;18.10;11.10;;;;;10.90;97836.80;;;;109040;1269;41144;-61
2022/10/14 06:00:18;;;;;;;14.10;8.50;;;;;10.90;97833.80;;;;109106;1257;40834;-62
2022/10/14 06:02:53;;;;;;;13.30;8.00;;;;;10.98;97834.00;;;;109053;1269;41259;-61
2022/10/14 06:05:22;;;;;;;12.60;7.20;;;;;11.00;97834.00;;;;108800;1270;41166;-61
2022/10/14 06:07:51;;;;;;;11.50;6.50;;;;;11.00;97830.80;;;;108833;1270;41237;-62
2022/10/14 06:10:19;;;;;;;11.80;6.50;;;;;11.10;97829.80;;;;108956;1266;41161;-61
2022/10/14 06:12:48;;;;;;;10.20;5.80;;;;;11.10;97834.80;;;;109094;1267;41151;-62
2022/10/14 06:15:17;;;;;;;11.70;6.00;;;;;11.20;97833.80;;;;109188;1257;41161;-61
2022/10/14 06:17:46;;;;;;;11.20;5.30;;;;;11.20;97831.00;;;;109014;1261;41609;-62
2022/10/14 06:20:15;;;;;;;13.20;6.90;;;;;11.30;97833.80;;;;108779;1261;41936;-60
2022/10/14 06:22:44;;;;;;;13.40;7.30;;;;;11.40;97833.80;;;;109002;1269;41214;-63
2022/10/14 06:25:13;;;;;;;12.80;6.90;;;;;11.50;97831.40;;;;109054;1268;41135;-62
2022/10/14 06:27:42;;;;;;;18.60;8.50;;;;;11.64;97830.80;;;;108987;1265;41217;-63
2022/10/14 06:30:11;;;;;;;14.60;6.90;;;;;11.80;97833.60;;;;109010;1269;41177;-63
2022/10/14 06:32:40;;;;;;;13.90;7.00;;;;;12.00;97830.80;;;;109042;1266;41902;-62
2022/10/14 06:35:10;;;;;;;11.80;5.80;;;;;12.20;97833.80;;;;108972;1269;41239;-62
2022/10/14 06:37:39;;;;;;;10.20;5.30;;;;;12.40;97835.00;;;;108831;1266;41222;-61
2022/10/14 06:40:09;;;;;;;12.00;6.20;;;;;12.52;97837.80;;;;108999;1266;41269;-62
2022/10/14 06:42:38;;;;;;;9.70;5.00;;;;;12.70;97836.00;;;;108709;1259;41605;-60
2022/10/14 06:45:09;;;;;;;14.30;5.60;;;;;12.80;97835.20;;;;108984;1269;41208;-64
2022/10/14 06:47:39;;;;;;;9.70;5.00;;;;;12.90;97832.40;;;;108969;1269;41242;-63
2022/10/14 06:50:09;;;;;;;17.10;9.50;;;;;12.96;97834.00;;;;108812;1269;41232;-61
2022/10/14 06:52:39;;;;;;;11.90;6.10;;;;;13.00;97833.80;;;;109112;1260;43037;-64
2022/10/14 06:55:07;;;;;;;12.40;5.60;;;;;13.06;97829.20;;;;109017;1266;41811;-61
2022/10/14 06:57:37;;;;;;;10.60;5.60;;;;;13.10;97827.00;;;;109012;1265;41390;-64
2022/10/14 07:00:08;;;;;;;8.90;4.30;;;;;13.10;97832.80;;;;109099;1269;41137;-62
2022/10/14 07:02:38;;;;;;;9.40;4.60;;;;;13.14;97830.80;;;;108786;1269;41239;-63
2022/10/14 07:05:08;;;;;;;11.70;6.60;;;;;13.20;97839.20;;;;108983;1256;41229;-61
2022/10/14 07:07:37;;;;;;;13.30;7.10;;;;;13.20;97840.20;;;;109038;1268;42196;-61
2022/10/14 07:10:06;;;;;;;13.80;7.00;;;;;13.30;97839.40;;;;109035;1269;41141;-61
2022/10/14 07:12:35;;;;;;;10.70;5.70;;;;;13.30;97845.00;;;;109096;1266;41625;-61
2022/10/14 07:15:04;;;;;;;13.60;6.80;;;;;13.36;97839.80;;;;108991;1269;41175;-62
2022/10/14 07:17:33;;;;;;;14.60;8.00;;;;;13.40;97841.60;;;;109003;1266;41891;-62
2022/10/14 07:20:02;;;;;;;14.10;7.50;;;;;13.44;97841.80;;;;108971;1261;41131;-62
2022/10/14 07:22:31;;;;;;;12.80;6.80;;;;;13.50;97837.80;;;;109060;1267;41245;-62
2022/10/14 07:25:06;;;;;;;12.50;6.60;;;;;13.50;97841.60;;;;108931;1269;41156;-63
2022/10/14 07:27:35;;;;;;;11.40;6.30;;;;;13.60;97839.60;;;;109010;1266;41797;-62
2022/10/14 07:30:04;;;;;;;11.50;5.50;;;;;13.64;97839.40;;;;109096;1264;41141;-62
2022/10/14 07:32:35;;;;;;;13.70;6.90;;;;;13.70;97833.60;;;;109077;1266;41227;-61
2022/10/14 07:35:05;;;;;;;14.50;6.90;;;;;13.80;97835.00;;;;108980;1269;41929;-62
2022/10/14 07:37:33;;;;;;;18.80;5.70;;;;;13.80;97836.20;;;;108989;1269;41147;-62
2022/10/14 07:40:03;;;;;;;10.60;5.60;;;;;13.90;97836.20;;;;109029;1269;41248;-62
2022/10/14 07:42:31;;;;;;;10.80;5.00;;;;;14.00;97837.00;;;;108997;1257;41638;-62
2022/10/14 07:45:00;;;;;;;9.10;4.40;;;;;14.16;97841.60;;;;108877;1263;41142;-62
2022/10/14 07:47:29;;;;;;;13.10;6.30;;;;;14.30;97839.40;;;;108900;1261;42481;-62
2022/10/14 07:50:01;;;;;;;11.90;5.10;;;;;14.40;97841.60;;;;108752;1271;41456;-62
2022/10/14 07:52:30;;;;;;;10.70;5.50;;;;;14.60;97839.60;;;;108957;1266;41156;-62
2022/10/14 07:54:58;;;;;;;11.00;5.30;;;;;14.70;97842.00;;;;108926;1270;41145;-62
2022/10/14 07:57:28;;;;;;;13.40;5.90;;;;;14.86;97842.00;;;;108891;1269;41914;-61
2022/10/14 07:59:58;;;;;;;11.10;6.10;;;;;15.08;97840.00;;;;109049;1269;41181;-62
2022/10/14 08:02:28;;;;;;;10.80;5.50;;;;;15.20;97840.80;;;;109053;1269;41131;-62
2022/10/14 08:05:01;;;;;;;9.80;4.80;;;;;15.30;97835.40;;;;108804;1266;41317;-61
2022/10/14 08:07:50;;;;;;;13.00;5.20;;;;;15.46;97832.40;;;;108593;1271;41136;-61
2022/10/14 08:10:19;;;;;;;10.80;5.10;;;;;15.60;97834.60;;;;108986;1266;41832;-61
2022/10/14 08:12:48;;;;;;;9.30;4.50;;;;;15.70;97832.20;;;;108583;1271;41605;-61
2022/10/14 08:15:16;;;;;;;11.40;4.70;;;;;15.84;97834.40;;;;108825;1270;41145;-62
2022/10/14 08:17:45;;;;;;;9.00;4.10;;;;;16.00;97827.40;;;;108847;1271;41146;-62
2022/10/14 08:20:14;;;;;;;12.40;4.50;;;;;16.16;97833.40;;;;108914;1271;41335;-62
2022/10/14 08:22:43;;;;;;;8.80;4.20;;;;;16.36;97826.60;;;;109005;1269;41384;-60
2022/10/14 08:25:11;;;;;;;10.50;5.30;;;;;16.62;97827.00;;;;108949;1269;42310;-62
2022/10/14 08:27:40;;;;;;;11.60;4.90;;;;;17.08;97825.80;;;;108969;1266;41146;-61
2022/10/14 08:30:10;;;;;;;10.60;5.00;;;;;17.66;97824.60;;;;108998;1265;42144;-61
2022/10/14 08:32:39;;;;;;;11.20;5.10;;;;;18.28;97824.40;;;;109009;1269;41290;-61
2022/10/14 08:35:08;;;;;;;10.20;4.20;;;;;18.70;97823.80;;;;108932;1269;41185;-60
2022/10/14 08:37:37;;;;;;;10.20;4.50;;;;;19.32;97826.60;;;;108935;1268;41164;-61
2022/10/14 08:40:07;;;;;;;9.70;3.80;;;;;19.50;97827.80;;;;109002;1266;41220;-61
2022/10/14 08:42:38;;;;;;;8.80;3.90;;;;;19.74;97824.00;;;;109014;1269;41543;-61
2022/10/14 08:45:24;;;;;;;9.30;4.50;;;;;19.70;97828.20;;;;109025;1269;41141;-62
2022/10/14 08:47:55;;;;;;;10.30;4.40;;;;;19.80;97822.80;;;;109021;1269;41610;-61
2022/10/14 08:50:50;;;;;;;9.40;3.20;;;;;19.80;97827.40;;;;108628;1266;41133;-61
2022/10/14 08:53:27;;;;;;;9.30;3.80;;;;;20.00;97827.20;;;;108753;1271;41504;-62
2022/10/14 08:56:00;;;;;;;8.00;3.70;;;;;20.18;97829.60;;;;108784;1270;41236;-62
2022/10/14 08:58:30;;;;;;;8.20;3.70;;;;;20.30;97823.60;;;;109074;1269;41409;-62
2022/10/14 09:01:04;;;;;;;8.20;3.70;;;;;20.40;97820.20;;;;109053;1269;41339;-61
2022/10/14 09:03:37;;;;;;;8.10;3.60;;;;;20.40;97815.40;;;;108735;1270;41210;-61
2022/10/14 09:06:28;;;;;;;11.10;4.60;;;;;20.40;97820.00;;;;108939;1269;41143;-62
2022/10/14 09:09:30;;;;;;;9.40;3.90;;;;;20.28;97819.60;;;;109005;1269;41144;-62
2022/10/14 09:12:11;;;;;;;9.60;4.00;;;;;20.16;97828.60;;;;108811;1269;41170;-61
2022/10/14 09:14:47;;;;;;;11.80;4.80;;;;;20.00;97829.40;;;;108950;1270;41142;-62
2022/10/14 09:17:23;;;;;;;8.20;3.40;;;;;19.70;97825.80;;;;109034;1269;41609;-62
2022/10/14 09:20:14;;;;;;;8.40;3.30;;;;;19.72;97828.60;;;;108992;1269;41513;-62
2022/10/14 09:22:45;;;;;;;8.40;3.70;;;;;19.90;97821.20;;;;108971;1269;41163;-61
2022/10/14 09:25:15;;;;;;;12.40;4.30;;;;;20.06;97822.00;;;;108939;1269;41939;-60
2022/10/14 09:27:43;;;;;;;9.50;4.00;;;;;20.00;97824.40;;;;109061;1266;41139;-60
2022/10/14 09:30:17;;;;;;;10.10;3.70;;;;;20.20;97827.80;;;;108769;1269;41147;-61
2022/10/14 09:32:51;;;;;;;7.60;3.40;;;;;20.38;97822.60;;;;108884;1266;41164;-62
2022/10/14 09:35:32;;;;;;;8.00;3.30;;;;;20.66;97821.60;;;;108972;1269;41142;-61
2022/10/14 09:38:01;;;;;;;9.30;4.40;;;;;21.06;97823.80;;;;108875;1268;41149;-61
2022/10/14 09:40:36;;;;;;;9.00;4.00;;;;;21.20;97824.20;;;;108883;1270;41261;-60
2022/10/14 09:43:07;;;;;;;10.10;3.90;;;;;21.10;97820.00;;;;108870;1270;41608;-61
2022/10/14 09:46:01;;;;;;;8.00;3.50;;;;;21.20;97818.40;;;;108883;1270;42284;-61
2022/10/14 09:48:39;;;;;;;8.80;3.80;;;;;21.56;97815.60;;;;108847;1270;41575;-61
2022/10/14 09:51:08;;;;;;;10.10;3.50;;;;;21.80;97816.00;;;;108908;1270;42058;-61
2022/10/14 09:53:58;;;;;;;8.80;4.00;;;;;22.16;97814.20;;;;109013;1266;41276;-61
2022/10/14 09:56:32;;;;;;;8.00;3.50;;;;;22.40;97807.80;;;;109062;1266;42255;-62
2022/10/14 09:59:16;;;;;;;7.20;3.10;;;;;22.66;97814.20;;;;108932;1265;41641;-62
2022/10/14 10:01:57;;;;;;;9.40;3.70;;;;;23.00;97811.60;;;;108879;1271;42127;-61
2022/10/14 10:04:36;;;;;;;;;;;;;23.84;97800.40;;;;108957;1270;41523;-61
2022/10/14 10:07:25;;;;;;;9.30;3.40;;;;;24.94;97799.20;;;;108977;1269;41132;-61
2022/10/14 10:09:58;;;;;;;7.00;2.90;;;;;26.20;97790.00;;;;109015;1269;41168;-62
2022/10/14 10:12:34;;;;;;;7.10;2.80;;;;;27.40;97784.20;;;;108999;1269;42230;-61
2022/10/14 10:15:06;;;;;;;8.20;3.40;;;;;28.46;97781.60;;;;109036;1269;41165;-61
2022/10/14 10:17:39;;;;;;;7.80;3.40;;;;;29.36;97779.80;;;;108971;1268;41242;-61
2022/10/14 10:20:27;;;;;;;8.80;3.50;;;;;29.88;97765.00;;;;108869;1270;41139;-61
2022/10/14 10:22:57;;;;;;;11.60;3.90;;;;;30.28;97767.00;;;;108957;1259;41151;-61
2022/10/14 10:25:27;;;;;;;10.60;3.50;;;;;30.52;97754.20;;;;108990;1257;41141;-61
2022/10/14 10:27:57;;;;;;;;;;;;;31.14;97749.40;;;;108990;1270;41205;-61
2022/10/14 10:30:27;;;;;;;7.70;3.30;;;;;31.72;97744.20;;;;109012;1269;41268;-61
2022/10/14 10:33:08;;;;;;;8.40;3.10;;;;;32.28;97747.40;;;;108960;1269;41130;-61
2022/10/14 10:35:36;;;;;;;11.10;3.30;;;;;32.38;97758.40;;;;108958;1257;41417;-61
2022/10/14 10:38:13;;;;;;;8.30;3.20;;;;;31.42;97758.40;;;;108989;1265;42729;-61
2022/10/14 10:41:21;;;;;;;8.00;3.30;;;;;30.46;97759.60;;;;108959;1264;41148;-62
2022/10/14 10:43:50;;;;;;;7.90;3.50;;;;;29.34;97764.80;;;;108958;1268;41150;-61
2022/10/14 10:46:50;;;;;;;9.40;3.60;;;;;28.38;97765.40;;;;108972;1269;41141;-61
2022/10/14 10:49:18;;;;;;;9.30;3.70;;;;;27.50;97769.00;;;;108986;1267;41139;-61
2022/10/14 10:52:11;;;;;;;8.50;3.80;;;;;26.70;97769.40;;;;109046;1269;41931;-61
2022/10/14 10:55:05;;;;;;;7.40;3.10;;;;;26.50;97762.20;;;;108959;1269;41324;-61
2022/10/14 10:57:39;;;;;;;7.30;2.60;;;;;26.60;97756.80;;;;108928;1270;41864;-61
2022/10/14 11:00:19;;;;;;;7.10;3.00;;;;;26.72;97764.60;;;;108998;1269;42304;-62
2022/10/14 11:03:36;;;;;;;7.00;3.10;;;;;26.50;97755.20;;;;109039;1256;42145;-61
2022/10/14 11:06:05;;;;;;;9.40;3.30;;;;;26.20;97756.80;;;;108727;1269;41168;-61
2022/10/14 11:12:09;;;;;;;9.10;3.90;;;;;25.74;97752.40;;;;108902;1269;41235;-62
2022/10/14 11:14:45;;;;;;;8.20;3.20;;;;;25.34;97751.40;;;;109058;1255;41302;-61
2022/10/14 11:17:21;;;;;;;6.70;2.80;;;;;25.30;97752.80;;;;108865;1252;41331;-61
2022/10/14 11:19:59;;;;;;;7.20;3.20;;;;;25.20;97749.60;;;;108924;1260;41178;-62
2022/10/14 11:23:16;;;;;;;7.80;3.10;;;;;25.04;97746.60;;;;108854;1269;41185;-62
2022/10/14 11:26:09;;;;;;;7.90;3.30;;;;;24.70;97749.00;;;;108929;1269;41182;-61
2022/10/14 11:28:47;;;;;;;7.60;3.40;;;;;24.40;97747.80;;;;108931;1269;41139;-63
2022/10/14 11:32:04;;;;;;;8.00;3.40;;;;;24.10;97750.20;;;;108989;1270;41144;-65
2022/10/14 11:34:47;;;;;;;10.10;3.70;;;;;23.80;97749.40;;;;108741;1271;40856;-62
2022/10/14 11:37:36;;;;;;;9.00;4.10;;;;;23.58;97744.40;;;;108976;1269;41889;-62
2022/10/14 11:40:27;;;;;;;9.30;3.70;;;;;23.00;97749.40;;;;108913;1271;42622;-63
2022/10/14 11:43:34;;;;;;;9.30;3.80;;;;;22.68;97749.80;;;;108987;1257;41148;-62
2022/10/14 11:46:09;;;;;;;8.80;3.60;;;;;22.40;97744.00;;;;108410;1271;41560;-62
2022/10/14 11:48:47;;;;;;;8.30;3.80;;;;;22.20;97744.00;;;;108621;1270;41241;-62
2022/10/14 11:51:48;;;;;;;10.30;3.90;;;;;21.90;97743.80;;;;108759;1271;41163;-62
2022/10/14 11:54:36;;;;;;;7.20;3.30;;;;;21.54;97739.60;;;;108990;1271;41831;-62
2022/10/14 11:57:05;;;;;;;8.80;3.40;;;;;21.50;97739.20;;;;108972;1270;41144;-62
2022/10/14 12:00:12;;;;;;;8.60;3.40;;;;;21.62;97733.40;;;;108956;1269;42213;-62
2022/10/14 12:03:08;;;;;;;8.00;3.40;;;;;21.90;97732.40;;;;109045;1270;41231;-62
2022/10/14 12:05:55;;;;;;;8.30;3.20;;;;;22.20;97730.20;;;;109099;1271;41146;-61
2022/10/14 12:08:45;;;;;;;9.20;4.10;;;;;22.40;97724.20;;;;109024;1266;41775;-62
2022/10/14 12:11:27;;;;;;;8.40;3.60;;;;;22.40;97718.40;;;;108934;1266;41238;-61
2022/10/14 12:14:04;;;;;;;8.00;3.40;;;;;22.40;97717.20;;;;108869;1270;42959;-62
2022/10/14 12:16:32;;;;;;;8.50;3.20;;;;;22.50;97716.60;;;;108872;1271;41139;-63
2022/10/14 12:19:02;;;;;;;6.90;3.10;;;;;22.60;97716.20;;;;108996;1270;41166;-63
2022/10/14 12:21:39;;;;;;;7.20;3.20;;;;;22.70;97718.00;;;;108784;1263;41127;-62
2022/10/14 12:24:15;;;;;;;7.50;3.10;;;;;22.80;97713.60;;;;109031;1260;41140;-64
2022/10/14 12:26:49;;;;;;;7.10;3.30;;;;;22.80;97713.00;;;;108962;1271;41220;-62
2022/10/14 12:29:25;;;;;;;9.20;3.10;;;;;22.80;97711.60;;;;108880;1271;41161;-62
2022/10/14 12:32:03;;;;;;;7.10;3.10;;;;;22.90;97708.00;;;;108768;1269;42419;-63
2022/10/14 12:34:39;;;;;;;8.20;3.00;;;;;22.94;97708.40;;;;108896;1266;41321;-62
2022/10/14 12:37:28;;;;;;;8.20;3.30;;;;;23.00;97706.20;;;;108971;1270;41732;-62
2022/10/14 12:40:02;;;;;;;7.70;3.20;;;;;23.00;97703.00;;;;109143;1256;41357;-62
2022/10/14 12:42:43;;;;;;;8.20;3.50;;;;;22.90;97703.40;;;;109017;1257;41146;-62
2022/10/14 12:45:22;;;;;;;7.30;3.20;;;;;22.96;97701.00;;;;108966;1260;41634;-63
2022/10/14 12:48:14;;;;;;;7.60;3.20;;;;;22.90;97699.20;;;;109016;1266;41493;-61
2022/10/14 12:50:45;;;;;;;8.00;3.70;;;;;22.78;97695.80;;;;108952;1271;41669;-61
2022/10/14 12:53:17;;;;;;;;;;;;;22.50;97694.40;;;;108937;1256;41141;-62